createdAt,value
2022-09-14T00:01:27.174Z,0.75
2022-09-14T00:04:11.710Z,0.65
2022-09-14T00:06:39.750Z,0.65
2022-09-14T00:09:07.660Z,0.70
2022-09-14T00:11:37.204Z,0.90
2022-09-14T00:14:05.830Z,0.60
2022-09-14T00:16:37.242Z,0.93
2022-09-14T00:19:09.083Z,0.55
2022-09-14T00:21:38.757Z,0.90
2022-09-14T00:24:07.525Z,0.35
2022-09-14T00:26:35.549Z,0.93
2022-09-14T00:29:04.928Z,0.70
2022-09-14T00:31:35.067Z,1.70
2022-09-14T00:34:04.199Z,1.13
2022-09-14T00:36:32.875Z,2.13
2022-09-14T00:39:01.058Z,0.47
2022-09-14T00:41:34.864Z,0.75
2022-09-14T00:44:28.431Z,0.98
2022-09-14T00:47:00.806Z,0.80
2022-09-14T00:49:36.437Z,0.73
2022-09-14T00:52:09.100Z,0.57
2022-09-14T00:54:48.116Z,0.40
2022-09-14T00:57:17.348Z,0.80
2022-09-14T00:59:47.886Z,3.28
2022-09-14T01:02:15.660Z,9.50
2022-09-14T01:04:44.023Z,0.50
2022-09-14T01:07:19.428Z,1.00
2022-09-14T01:09:58.181Z,0.40
2022-09-14T01:13:09.991Z,0.47
2022-09-14T01:15:58.514Z,0.38
2022-09-14T01:18:32.925Z,1.52
2022-09-14T01:21:09.573Z,0.70
2022-09-14T01:24:14.989Z,0.43
2022-09-14T01:27:03.526Z,1.13
2022-09-14T01:29:36.106Z,1.13
2022-09-14T01:32:06.915Z,0.63
2022-09-14T01:34:54.369Z,0.43
2022-09-14T01:37:31.665Z,0.50
2022-09-14T01:40:16.793Z,0.45
2022-09-14T01:42:47.389Z,0.45
2022-09-14T01:45:19.529Z,0.50
2022-09-14T01:48:01.051Z,0.50
2022-09-14T01:50:35.323Z,0.77
2022-09-14T01:53:12.413Z,1.25
2022-09-14T01:55:46.188Z,1.63
2022-09-14T01:58:35.063Z,0.45
2022-09-14T02:01:05.058Z,0.80
2022-09-14T02:03:47.038Z,0.70
2022-09-14T02:06:22.902Z,0.25
2022-09-14T02:08:50.784Z,0.70
2022-09-14T02:11:18.345Z,0.65
2022-09-14T02:13:45.903Z,0.50
2022-09-14T02:16:13.636Z,0.52
2022-09-14T02:18:43.625Z,0.90
2022-09-14T02:21:18.902Z,0.38
2022-09-14T02:23:49.134Z,6.07
2022-09-14T02:26:17.874Z,0.35
2022-09-14T02:28:45.605Z,0.52
2022-09-14T02:31:33.991Z,1.35
2022-09-14T02:34:09.371Z,0.75
2022-09-14T02:36:58.384Z,1.05
2022-09-14T02:40:02.735Z,0.60
2022-09-14T02:43:05.350Z,0.60
2022-09-14T02:45:57.174Z,0.47
2022-09-14T02:48:42.755Z,0.47
2022-09-14T02:51:31.104Z,0.55
2022-09-14T02:54:16.784Z,0.95
2022-09-14T02:56:45.917Z,1.20
2022-09-14T02:59:13.473Z,1.23
2022-09-14T03:01:41.134Z,1.83
2022-09-14T03:04:08.639Z,0.70
2022-09-14T03:06:36.257Z,1.35
2022-09-14T03:09:03.762Z,0.60
2022-09-14T03:11:31.311Z,0.40
2022-09-14T03:13:58.861Z,1.58
2022-09-14T03:16:27.030Z,0.43
2022-09-14T03:18:55.193Z,0.63
2022-09-14T03:21:22.919Z,0.60
2022-09-14T03:23:55.180Z,0.90
2022-09-14T03:26:23.873Z,1.00
2022-09-14T03:28:55.846Z,0.90
2022-09-14T03:31:23.893Z,0.85
2022-09-14T03:33:58.913Z,0.95
2022-09-14T03:36:28.121Z,0.38
2022-09-14T03:38:58.688Z,0.68
2022-09-14T03:41:26.890Z,2.45
2022-09-14T03:43:54.554Z,1.65
2022-09-14T03:46:23.867Z,0.55
2022-09-14T03:48:51.629Z,0.57
2022-09-14T03:51:19.150Z,1.33
2022-09-14T03:53:47.211Z,1.58
2022-09-14T03:56:20.232Z,0.30
2022-09-14T03:58:49.078Z,0.70
2022-09-14T04:01:19.575Z,0.35
2022-09-14T04:03:47.820Z,0.70
2022-09-14T04:06:16.475Z,2.03
2022-09-14T04:08:45.664Z,0.50
2022-09-14T04:11:20.095Z,0.50
2022-09-14T04:13:48.265Z,0.40
2022-09-14T04:16:16.870Z,0.30
2022-09-14T04:18:45.111Z,0.40
2022-09-14T04:21:17.839Z,3.40
2022-09-14T04:24:12.833Z,0.80
2022-09-14T04:26:33.937Z,0.65
2022-09-14T04:29:01.620Z,0.63
2022-09-14T04:31:29.581Z,0.45
2022-09-14T04:33:57.558Z,1.73
2022-09-14T04:36:31.328Z,4.32
2022-09-14T04:39:03.918Z,2.70
2022-09-14T04:41:32.599Z,1.10
2022-09-14T04:44:00.900Z,3.20
2022-09-14T04:46:35.139Z,3.10
2022-09-14T04:49:02.857Z,4.25
2022-09-14T04:51:31.726Z,2.78
2022-09-14T04:54:01.575Z,4.78
2022-09-14T04:56:32.065Z,4.63
2022-09-14T04:59:01.893Z,3.97
2022-09-14T05:01:32.217Z,5.38
2022-09-14T05:03:59.706Z,1.98
2022-09-14T05:06:30.710Z,5.30
2022-09-14T05:09:00.223Z,6.07
2022-09-14T05:11:30.529Z,3.30
2022-09-14T05:13:59.184Z,4.80
2022-09-14T05:16:28.675Z,2.58
2022-09-14T05:18:58.877Z,3.00
2022-09-14T05:21:26.563Z,5.60
2022-09-14T05:24:01.381Z,2.15
2022-09-14T05:26:31.039Z,2.13
2022-09-14T05:29:00.902Z,5.32
2022-09-14T05:31:30.336Z,4.38
2022-09-14T05:33:58.386Z,3.45
2022-09-14T05:36:26.242Z,1.95
2022-09-14T05:38:54.236Z,4.47
2022-09-14T05:41:21.725Z,2.67
2022-09-14T05:43:49.030Z,8.05
2022-09-14T05:46:20.483Z,7.57
2022-09-14T05:48:48.828Z,2.97
2022-09-14T05:51:25.255Z,5.25
2022-09-14T05:53:57.207Z,6.10
2022-09-14T05:56:30.069Z,2.67
2022-09-14T05:58:59.369Z,2.95
2022-09-14T06:01:32.856Z,4.63
2022-09-14T06:04:04.973Z,4.40
2022-09-14T06:06:33.439Z,8.85
2022-09-14T06:09:01.294Z,4.32
2022-09-14T06:11:36.323Z,5.45
2022-09-14T06:14:04.507Z,4.55
2022-09-14T06:16:32.624Z,10.27
2022-09-14T06:19:00.813Z,5.90
2022-09-14T06:21:33.343Z,5.32
2022-09-14T06:24:01.088Z,4.45
2022-09-14T06:26:29.042Z,9.15
2022-09-14T06:28:56.810Z,4.68
2022-09-14T06:31:25.506Z,6.03
2022-09-14T06:33:53.594Z,9.02
2022-09-14T06:36:23.472Z,9.38
2022-09-14T06:38:53.716Z,4.03
2022-09-14T06:41:29.319Z,9.63
2022-09-14T06:43:59.907Z,3.08
2022-09-14T06:46:31.361Z,11.60
2022-09-14T06:49:05.401Z,8.15
2022-09-14T06:51:38.796Z,6.03
2022-09-14T06:54:10.394Z,7.70
2022-09-14T06:56:45.087Z,5.90
2022-09-14T06:59:15.144Z,8.15
2022-09-14T07:04:10.628Z,11.23
2022-09-14T07:06:44.004Z,8.82
2022-09-14T07:09:11.963Z,5.70
2022-09-14T07:11:40.463Z,5.50
2022-09-14T07:14:08.458Z,5.28
2022-09-14T07:16:37.740Z,4.85
2022-09-14T07:19:08.411Z,4.30
2022-09-14T07:21:36.172Z,3.58
2022-09-14T07:24:05.149Z,5.03
2022-09-14T07:26:36.476Z,6.28
2022-09-14T07:29:07.435Z,4.85
2022-09-14T07:31:37.938Z,7.75
2022-09-14T07:34:06.626Z,9.70
2022-09-14T07:36:36.269Z,7.53
2022-09-14T07:39:10.424Z,5.72
2022-09-14T07:41:38.348Z,6.50
2022-09-14T07:44:07.763Z,7.82
2022-09-14T07:46:43.297Z,5.57
2022-09-14T07:49:11.622Z,6.85
2022-09-14T07:51:39.737Z,7.72
2022-09-14T07:54:12.003Z,7.82
2022-09-14T07:56:43.529Z,5.03
2022-09-14T08:02:01.348Z,4.07
2022-09-14T08:04:29.706Z,7.07
2022-09-14T08:07:00.919Z,9.68
2022-09-14T08:09:28.884Z,5.75
2022-09-14T08:11:57.300Z,8.52
2022-09-14T08:14:25.193Z,2.83
2022-09-14T08:16:53.474Z,7.07
2022-09-14T08:19:21.255Z,7.30
2022-09-14T08:21:49.013Z,10.57
2022-09-14T08:24:19.005Z,6.47
2022-09-14T08:26:47.729Z,9.00
2022-09-14T08:29:18.869Z,6.55
2022-09-14T08:31:47.264Z,13.25
2022-09-14T08:34:16.497Z,7.43
2022-09-14T08:36:45.241Z,8.25
2022-09-14T08:39:14.370Z,4.80
2022-09-14T08:41:47.594Z,5.60
2022-09-14T08:44:22.960Z,8.13
2022-09-14T08:47:01.176Z,3.75
2022-09-14T08:49:50.156Z,3.80
2022-09-14T08:52:26.654Z,8.27
2022-09-14T08:54:56.718Z,6.35
2022-09-14T09:00:25.935Z,6.40
2022-09-14T09:03:30.407Z,5.95
2022-09-14T09:06:22.831Z,3.95
2022-09-14T09:09:04.656Z,7.50
2022-09-14T09:11:41.201Z,5.00
2022-09-14T09:14:19.890Z,7.38
2022-09-14T09:16:53.914Z,9.43
2022-09-14T09:19:30.400Z,6.82
2022-09-14T09:22:01.273Z,8.48
2022-09-14T09:24:52.465Z,6.20
2022-09-14T09:27:19.830Z,7.78
2022-09-14T09:29:49.303Z,7.72
2022-09-14T09:32:23.352Z,6.63
2022-09-14T09:34:51.336Z,7.50
2022-09-14T09:37:23.866Z,10.00
2022-09-14T09:39:51.584Z,8.35
2022-09-14T09:42:24.745Z,10.07
2022-09-14T09:45:04.065Z,9.93
2022-09-14T09:47:35.833Z,7.43
2022-09-14T09:50:19.568Z,4.90
2022-09-14T09:52:55.199Z,5.78
2022-09-14T09:55:26.587Z,10.90
2022-09-14T09:57:55.165Z,10.45
2022-09-14T10:00:28.322Z,11.30
2022-09-14T10:02:56.395Z,7.18
2022-09-14T10:05:29.071Z,11.43
2022-09-14T10:08:08.052Z,8.20
2022-09-14T10:10:44.793Z,5.07
2022-09-14T10:13:29.034Z,5.10
2022-09-14T10:16:18.070Z,8.27
2022-09-14T10:18:51.507Z,4.05
2022-09-14T10:21:21.080Z,4.85
2022-09-14T10:24:21.242Z,11.48
2022-09-14T10:26:48.598Z,7.13
2022-09-14T10:29:38.264Z,9.40
2022-09-14T10:32:23.512Z,6.80
2022-09-14T10:34:53.825Z,6.45
2022-09-14T10:37:33.183Z,4.85
2022-09-14T10:40:15.841Z,6.13
2022-09-14T10:43:06.367Z,5.22
2022-09-14T10:45:51.553Z,7.45
2022-09-14T10:48:21.753Z,4.03
2022-09-14T10:50:56.320Z,7.43
2022-09-14T10:53:34.037Z,8.57
2022-09-14T10:56:19.855Z,8.23
2022-09-14T10:59:11.710Z,5.15
2022-09-14T11:01:58.238Z,6.55
2022-09-14T11:04:34.645Z,8.93
2022-09-14T11:07:05.996Z,5.63
2022-09-14T11:09:45.441Z,5.75
2022-09-14T11:12:29.193Z,6.75
2022-09-14T11:15:11.516Z,9.32
2022-09-14T11:17:49.276Z,6.68
2022-09-14T11:20:21.660Z,6.18
2022-09-14T11:23:13.565Z,6.47
2022-09-14T11:26:02.539Z,3.38
2022-09-14T11:28:38.023Z,4.05
2022-09-14T11:31:15.392Z,6.55
2022-09-14T11:34:18.628Z,3.95
2022-09-14T11:36:54.715Z,5.70
2022-09-14T11:39:52.991Z,6.30
2022-09-14T11:42:25.549Z,3.65
2022-09-14T11:45:03.937Z,8.63
2022-09-14T11:47:39.626Z,4.20
2022-09-14T11:50:16.650Z,6.55
2022-09-14T11:52:45.276Z,4.43
2022-09-14T11:55:18.278Z,5.55
2022-09-14T11:57:47.015Z,4.03
2022-09-14T12:00:33.644Z,3.50
2022-09-14T12:03:20.255Z,5.18
2022-09-14T12:05:50.093Z,3.13
2022-09-14T12:08:43.857Z,5.53
2022-09-14T12:11:11.156Z,71.60
2022-09-14T12:13:38.872Z,272.67
2022-09-14T12:16:09.018Z,5.35
2022-09-14T12:18:40.744Z,4.50
2022-09-14T12:21:25.747Z,3.42
2022-09-14T12:23:59.823Z,4.28
2022-09-14T12:26:33.897Z,2.10
2022-09-14T12:29:33.230Z,2.83
2022-09-14T12:32:03.288Z,3.03
2022-09-14T12:34:33.295Z,4.00
2022-09-14T12:39:34.814Z,3.17
2022-09-14T12:42:04.684Z,2.90
2022-09-14T12:47:25.997Z,1.60
2022-09-14T12:49:57.923Z,3.40
2022-09-14T12:52:34.057Z,4.72
2022-09-14T12:58:13.109Z,3.40
2022-09-14T13:01:42.017Z,1.63
2022-09-14T13:04:17.548Z,2.25
2022-09-14T13:06:48.984Z,2.53
2022-09-14T13:09:21.136Z,3.78
2022-09-14T13:11:55.617Z,2.78
2022-09-14T13:14:25.657Z,2.15
2022-09-14T13:16:54.648Z,2.83
2022-09-14T13:19:29.671Z,28.30
2022-09-14T13:22:00.935Z,243.65
2022-09-14T13:24:44.610Z,112.07
2022-09-14T13:27:33.932Z,95.20
2022-09-14T13:30:17.099Z,162.82
2022-09-14T13:32:49.322Z,160.27
2022-09-14T13:35:23.298Z,184.43
2022-09-14T13:37:50.921Z,190.55
2022-09-14T13:40:23.524Z,203.95
2022-09-14T13:42:51.135Z,160.07
2022-09-14T13:45:18.824Z,241.75
2022-09-14T13:47:46.371Z,133.90
2022-09-14T13:50:15.105Z,114.85
2022-09-14T13:53:01.115Z,185.23
2022-09-14T13:55:32.349Z,176.23
2022-09-14T13:58:23.285Z,168.05
2022-09-14T14:01:02.324Z,171.98
2022-09-14T14:03:50.338Z,163.52
2022-09-14T14:06:31.381Z,138.63
2022-09-14T14:09:03.966Z,160.57
2022-09-14T14:11:41.908Z,159.40
2022-09-14T14:14:26.474Z,148.95
2022-09-14T14:17:25.683Z,154.55
2022-09-14T14:19:55.689Z,141.32
2022-09-14T14:22:32.286Z,138.43
2022-09-14T14:25:15.779Z,149.25
2022-09-14T14:27:46.389Z,128.73
2022-09-14T14:30:21.213Z,128.63
2022-09-14T14:32:52.752Z,137.10
2022-09-14T14:35:22.630Z,147.27
2022-09-14T14:40:19.066Z,153.73
2022-09-14T14:42:47.233Z,138.35
2022-09-14T14:45:17.477Z,140.82
2022-09-14T14:47:45.957Z,132.27
2022-09-14T14:50:20.524Z,141.52
2022-09-14T14:52:48.431Z,122.18
2022-09-14T14:55:15.993Z,142.50
2022-09-14T14:57:43.626Z,116.75
2022-09-14T15:00:16.058Z,130.75
2022-09-14T15:02:44.072Z,110.28
2022-09-14T15:05:12.319Z,110.18
2022-09-14T15:07:40.340Z,124.55
2022-09-14T15:10:08.601Z,124.18
2022-09-14T15:12:36.339Z,120.55
2022-09-14T15:15:04.024Z,107.43
2022-09-14T15:17:32.382Z,116.30
2022-09-14T15:20:00.067Z,96.18
2022-09-14T15:22:27.737Z,82.25
2022-09-14T15:24:55.343Z,90.13
2022-09-14T15:27:22.830Z,92.20
2022-09-14T15:29:50.702Z,100.20
2022-09-14T15:32:18.332Z,94.13
2022-09-14T15:34:47.118Z,95.20
2022-09-14T15:37:14.816Z,101.53
2022-09-14T15:39:46.111Z,94.25
2022-09-14T15:42:22.410Z,95.00
2022-09-14T15:44:49.945Z,96.90
2022-09-14T15:47:17.366Z,104.68
2022-09-14T15:49:44.932Z,99.68
2022-09-14T15:52:12.729Z,98.03
2022-09-14T15:54:40.476Z,100.82
2022-09-14T15:57:12.044Z,89.10
2022-09-14T15:59:40.867Z,96.15
2022-09-14T16:02:08.429Z,106.18
2022-09-14T16:04:37.559Z,114.80
2022-09-14T16:07:10.007Z,101.53
2022-09-14T16:09:41.437Z,111.03
2022-09-14T16:12:10.136Z,81.43
2022-09-14T16:14:37.630Z,92.32
2022-09-14T16:17:05.948Z,89.53
2022-09-14T16:19:34.024Z,88.50
2022-09-14T16:22:01.881Z,79.60
2022-09-14T16:24:29.803Z,88.25
2022-09-14T16:26:58.035Z,76.53
2022-09-14T16:29:26.030Z,84.07
2022-09-14T16:31:54.052Z,80.43
2022-09-14T16:34:28.149Z,66.03
2022-09-14T16:36:58.768Z,71.85
2022-09-14T16:39:29.813Z,77.13
2022-09-14T16:41:58.665Z,81.85
2022-09-14T16:44:27.876Z,79.78
2022-09-14T16:46:57.739Z,80.78
2022-09-14T16:49:27.840Z,79.35
2022-09-14T16:51:56.732Z,78.45
2022-09-14T16:54:25.628Z,80.95
2022-09-14T16:56:58.251Z,85.30
2022-09-14T16:59:26.597Z,82.95
2022-09-14T17:01:55.538Z,75.25
2022-09-14T17:04:24.065Z,74.53
2022-09-14T17:06:53.025Z,77.80
2022-09-14T17:09:25.113Z,83.00
2022-09-14T17:11:54.261Z,77.55
2022-09-14T17:14:24.466Z,78.70
2022-09-14T17:16:52.275Z,85.53
2022-09-14T17:19:20.401Z,83.50
2022-09-14T17:21:48.665Z,81.68
2022-09-14T17:24:19.490Z,66.78
2022-09-14T17:26:47.835Z,64.22
2022-09-14T17:29:15.410Z,73.30
2022-09-14T17:31:44.359Z,72.30
2022-09-14T17:34:13.806Z,75.35
2022-09-14T17:36:41.575Z,75.47
2022-09-14T17:39:12.299Z,76.72
2022-09-14T17:41:41.157Z,68.65
2022-09-14T17:44:11.689Z,66.07
2022-09-14T17:46:48.147Z,68.20
2022-09-14T17:49:18.833Z,68.57
2022-09-14T17:51:46.614Z,57.42
2022-09-14T17:54:14.407Z,61.42
2022-09-14T17:56:42.217Z,66.53
2022-09-14T17:59:14.257Z,57.72
2022-09-14T18:01:42.115Z,56.47
2022-09-14T18:04:12.128Z,72.25
2022-09-14T18:06:42.820Z,75.20
2022-09-14T18:09:18.924Z,69.88
2022-09-14T18:14:15.111Z,82.20
2022-09-14T18:16:43.870Z,71.78
2022-09-14T18:19:12.177Z,72.20
2022-09-14T18:21:39.669Z,72.55
2022-09-14T18:24:09.059Z,74.00
2022-09-14T18:26:38.511Z,77.65
2022-09-14T18:29:06.172Z,71.30
2022-09-14T18:31:33.703Z,70.80
2022-09-14T18:34:01.764Z,72.25
2022-09-14T18:36:30.067Z,74.13
2022-09-14T18:38:58.800Z,62.47
2022-09-14T18:41:28.927Z,62.17
2022-09-14T18:43:56.332Z,64.55
2022-09-14T18:46:27.793Z,75.07
2022-09-14T18:48:58.625Z,69.40
2022-09-14T18:51:27.344Z,82.60
2022-09-14T18:54:05.202Z,79.43
2022-09-14T18:56:33.878Z,73.25
2022-09-14T18:59:02.634Z,73.00
2022-09-14T19:01:30.265Z,69.15
2022-09-14T19:03:58.296Z,65.05
2022-09-14T19:06:26.245Z,60.75
2022-09-14T19:08:53.685Z,64.88
2022-09-14T19:11:23.939Z,65.97
2022-09-14T19:13:57.347Z,71.75
2022-09-14T19:16:25.569Z,62.45
2022-09-14T19:18:53.993Z,58.50
2022-09-14T19:21:24.175Z,78.22
2022-09-14T19:24:09.040Z,70.72
2022-09-14T19:26:44.570Z,60.95
2022-09-14T19:31:40.589Z,67.45
2022-09-14T19:34:08.538Z,59.50
2022-09-14T19:36:36.056Z,54.55
2022-09-14T19:39:04.836Z,55.15
2022-09-14T19:41:34.005Z,56.58
2022-09-14T19:44:02.467Z,55.80
2022-09-14T19:46:31.399Z,58.90
2022-09-14T19:48:59.042Z,55.13
2022-09-14T19:51:28.667Z,56.10
2022-09-14T19:53:59.106Z,56.70
2022-09-14T19:56:28.929Z,58.92
2022-09-14T19:58:58.611Z,59.58
2022-09-14T20:01:27.777Z,65.18
2022-09-14T20:03:55.525Z,61.22
2022-09-14T20:06:30.353Z,54.95
2022-09-14T20:09:01.003Z,55.38
2022-09-14T20:11:30.384Z,58.67
2022-09-14T20:13:59.022Z,59.78
2022-09-14T20:16:29.936Z,59.83
2022-09-14T20:18:59.989Z,47.92
2022-09-14T20:24:17.730Z,58.38
2022-09-14T20:26:50.690Z,58.08
2022-09-14T20:29:20.228Z,40.92
2022-09-14T20:31:48.115Z,50.95
2022-09-14T20:34:17.273Z,51.15
2022-09-14T20:36:45.151Z,53.67
2022-09-14T20:39:12.850Z,42.78
2022-09-14T20:41:40.669Z,51.78
2022-09-14T20:44:08.387Z,37.20
2022-09-14T20:46:39.259Z,51.80
2022-09-14T20:49:11.443Z,8.77
2022-09-14T20:51:42.487Z,20.30
2022-09-14T20:54:13.129Z,51.13
2022-09-14T20:56:41.184Z,54.00
2022-09-14T20:59:11.681Z,28.55
2022-09-14T21:01:40.739Z,8.43
2022-09-14T21:04:10.972Z,14.00
2022-09-14T21:06:44.726Z,35.20
2022-09-14T21:09:13.671Z,33.28
2022-09-14T21:11:42.074Z,41.70
2022-09-14T21:14:09.471Z,4.00
2022-09-14T21:16:43.004Z,1.40
2022-09-14T21:19:17.783Z,36.65
2022-09-14T21:21:45.602Z,40.13
2022-09-14T21:24:13.693Z,44.92
2022-09-14T21:26:43.270Z,43.63
2022-09-14T21:29:14.343Z,40.25
2022-09-14T21:31:42.258Z,33.58
2022-09-14T21:34:11.211Z,33.10
2022-09-14T21:36:41.876Z,38.22
2022-09-14T21:39:15.977Z,41.92
2022-09-14T21:41:44.896Z,38.20
2022-09-14T21:44:13.316Z,38.60
2022-09-14T21:46:41.021Z,44.70
2022-09-14T21:49:12.479Z,45.78
2022-09-14T21:51:40.119Z,34.42
2022-09-14T21:54:09.377Z,30.10
2022-09-14T21:56:38.581Z,42.22
2022-09-14T21:59:11.926Z,37.63
2022-09-14T22:01:40.723Z,20.77
2022-09-14T22:04:09.644Z,41.67
2022-09-14T22:06:37.195Z,44.60
2022-09-14T22:09:04.952Z,49.25
2022-09-14T22:11:34.407Z,44.30
2022-09-14T22:14:02.954Z,48.47
2022-09-14T22:16:34.042Z,50.13
2022-09-14T22:19:04.370Z,47.40
2022-09-14T22:21:33.411Z,47.85
2022-09-14T22:24:02.613Z,50.13
2022-09-14T22:26:32.010Z,51.05
2022-09-14T22:29:00.081Z,50.55
2022-09-14T22:31:30.036Z,52.38
2022-09-14T22:33:58.235Z,34.45
2022-09-14T22:36:26.436Z,45.65
2022-09-14T22:38:58.680Z,6.85
2022-09-14T22:41:27.746Z,32.08
2022-09-14T22:43:56.356Z,40.67
2022-09-14T22:46:25.008Z,43.80
2022-09-14T22:48:53.376Z,49.33
2022-09-14T22:51:24.189Z,30.23
2022-09-14T22:53:52.769Z,47.53
2022-09-14T22:56:25.171Z,48.38
2022-09-14T22:58:53.469Z,43.22
2022-09-14T23:01:26.396Z,0.95
2022-09-14T23:03:59.838Z,1.85
2022-09-14T23:06:29.426Z,7.75
2022-09-14T23:08:57.294Z,48.08
2022-09-14T23:11:26.637Z,52.00
2022-09-14T23:13:55.520Z,49.95
2022-09-14T23:16:26.247Z,49.20
2022-09-14T23:18:56.405Z,39.03
2022-09-14T23:23:55.226Z,22.23
2022-09-14T23:26:23.682Z,4.20
2022-09-14T23:28:56.058Z,18.92
2022-09-14T23:31:25.207Z,5.60
2022-09-14T23:33:54.658Z,15.43
2022-09-14T23:36:23.184Z,0.73
2022-09-14T23:38:51.236Z,0.90
2022-09-14T23:41:20.477Z,1.00
2022-09-14T23:43:48.122Z,0.77
2022-09-14T23:46:18.345Z,0.73
2022-09-14T23:48:45.947Z,0.60
2022-09-14T23:51:14.305Z,0.75
2022-09-14T23:53:44.181Z,1.10
2022-09-14T23:56:11.860Z,0.80
2022-09-14T23:58:41.452Z,0.90
